Time;durP1;ratioP1;P1;durP2;ratioP2;P2;SDS_P1;SDS_P2;PMS_P1;PMS_P2;Temp;Humidity;BMP_temperature;BMP_pressure;BME280_temperature;BME280_humidity;BME280_pressure;Samples;Min_cycle;Max_cycle;Signal;HPM_P1;HPM_P2
2023/05/26 00:01:46;;;;;;;3.57;3.27;;;20.10;64.00;;;;;;4948612;28;20460;-73
2023/05/26 00:04:16;;;;;;;2.60;2.33;;;20.10;63.90;;;;;;4948274;28;20460;-72
2023/05/26 00:06:46;;;;;;;3.20;2.90;;;20.10;63.90;;;;;;4948743;28;20440;-72
2023/05/26 00:09:14;;;;;;;3.30;3.00;;;20.10;63.90;;;;;;4959623;28;20452;-72
2023/05/26 00:11:43;;;;;;;3.80;2.77;;;20.10;63.90;;;;;;4974615;28;20678;-71
2023/05/26 00:14:14;;;;;;;3.80;2.60;;;20.10;63.90;;;;;;4969859;28;20459;-72
2023/05/26 00:16:43;;;;;;;3.93;3.10;;;20.10;64.00;;;;;;4945925;28;20464;-72
2023/05/26 00:19:12;;;;;;;3.30;3.00;;;20.10;63.80;;;;;;4948905;28;20444;-72
2023/05/26 00:21:40;;;;;;;3.57;2.70;;;20.10;64.00;;;;;;4966746;28;20594;-71
2023/05/26 00:24:08;;;;;;;3.83;3.20;;;20.10;64.00;;;;;;4981687;28;20986;-70
2023/05/26 00:26:37;;;;;;;3.60;3.07;;;20.10;64.00;;;;;;4951092;28;20455;-73
2023/05/26 00:29:06;;;;;;;3.77;3.00;;;20.10;63.90;;;;;;4983714;28;20443;-72
2023/05/26 00:31:50;;;;;;;3.10;2.63;;;20.10;64.00;;;;;;4959381;28;20590;-71
2023/05/26 00:34:20;;;;;;;3.33;3.03;;;20.10;63.90;;;;;;4982623;28;20970;-72
2023/05/26 00:36:48;;;;;;;3.00;2.60;;;20.10;63.70;;;;;;4967563;28;20944;-72
2023/05/26 00:39:17;;;;;;;3.20;2.70;;;20.10;63.90;;;;;;4980980;28;20443;-71
2023/05/26 00:41:45;;;;;;;5.47;3.27;;;20.10;64.00;;;;;;4967552;28;20820;-72
2023/05/26 00:44:14;;;;;;;3.40;2.60;;;20.10;64.00;;;;;;4982442;28;20474;-72
2023/05/26 00:46:42;;;;;;;3.40;2.67;;;20.10;63.90;;;;;;4958317;28;20467;-72
2023/05/26 00:49:12;;;;;;;4.47;3.10;;;20.10;63.90;;;;;;4982599;28;20865;-73
2023/05/26 00:51:41;;;;;;;5.87;3.60;;;20.10;63.90;;;;;;4940500;28;20478;-72
2023/05/26 00:54:09;;;;;;;2.60;2.40;;;20.10;63.90;;;;;;4962828;28;20506;-72
2023/05/26 00:56:38;;;;;;;4.03;2.60;;;20.10;63.90;;;;;;4983284;28;20463;-72
2023/05/26 00:59:06;;;;;;;3.00;2.50;;;20.10;64.00;;;;;;4962846;28;20455;-72
2023/05/26 01:01:34;;;;;;;4.10;2.87;;;20.10;63.90;;;;;;4967062;28;20479;-72
2023/05/26 01:04:03;;;;;;;4.33;2.87;;;20.00;63.60;;;;;;4966951;28;20530;-72
2023/05/26 01:06:33;;;;;;;3.40;2.83;;;20.10;63.90;;;;;;4990867;28;20459;-72
2023/05/26 01:09:02;;;;;;;3.60;3.30;;;20.00;63.80;;;;;;4961413;28;20901;-71
2023/05/26 01:11:36;;;;;;;4.03;2.40;;;20.00;63.80;;;;;;4974964;28;20475;-72
2023/05/26 01:14:11;;;;;;;5.33;3.13;;;20.00;63.60;;;;;;4976151;28;20559;-72
2023/05/26 01:16:46;;;;;;;7.23;3.37;;;20.00;63.80;;;;;;4974116;28;20959;-72
2023/05/26 01:19:43;;;;;;;3.47;3.17;;;20.00;63.50;;;;;;4966045;28;20454;-72
2023/05/26 01:22:23;;;;;;;3.90;2.73;;;20.00;63.60;;;;;;4978846;28;20451;-72
2023/05/26 01:25:01;;;;;;;3.13;2.80;;;20.00;63.40;;;;;;4964275;28;20505;-72
2023/05/26 01:27:45;;;;;;;4.90;3.33;;;20.00;63.60;;;;;;4982893;28;20942;-72
2023/05/26 01:30:17;;;;;;;3.33;3.03;;;20.00;63.30;;;;;;4966965;28;20919;-72
2023/05/26 01:32:48;;;;;;;5.13;3.80;;;20.00;63.50;;;;;;4981215;28;20494;-71
2023/05/26 01:35:17;;;;;;;4.03;2.90;;;20.00;63.60;;;;;;4981967;28;20467;-73
2023/05/26 01:37:46;;;;;;;4.60;3.50;;;20.00;63.30;;;;;;4990330;28;20509;-72
2023/05/26 01:40:15;;;;;;;3.97;2.80;;;20.00;63.20;;;;;;4971554;28;20470;-72
2023/05/26 01:42:50;;;;;;;5.30;3.17;;;20.00;63.30;;;;;;4982022;28;20432;-72
2023/05/26 01:45:23;;;;;;;3.73;2.97;;;20.00;63.50;;;;;;4963377;28;21379;-72
2023/05/26 01:47:56;;;;;;;4.90;3.00;;;20.00;63.70;;;;;;4981134;28;20451;-73
2023/05/26 01:50:29;;;;;;;4.63;3.27;;;20.00;63.60;;;;;;4982506;28;20560;-72
2023/05/26 01:53:02;;;;;;;4.57;3.13;;;20.00;63.50;;;;;;4980615;28;20471;-72
2023/05/26 01:55:31;;;;;;;5.30;3.33;;;20.00;63.80;;;;;;4966224;28;20606;-72
2023/05/26 01:58:02;;;;;;;4.43;2.90;;;20.00;63.20;;;;;;4980071;28;20447;-72
2023/05/26 02:00:35;;;;;;;8.43;3.03;;;20.00;63.50;;;;;;4989610;28;20465;-71
2023/05/26 02:03:05;;;;;;;4.53;3.50;;;20.00;63.30;;;;;;4978964;28;20451;-72
2023/05/26 02:05:33;;;;;;;5.67;2.90;;;20.00;63.60;;;;;;4988444;28;21036;-71
2023/05/26 02:08:02;;;;;;;4.27;2.90;;;19.90;63.40;;;;;;4972943;28;20465;-72
2023/05/26 02:10:30;;;;;;;5.67;3.10;;;19.90;63.40;;;;;;4955641;28;20840;-71
2023/05/26 02:12:59;;;;;;;6.97;3.73;;;19.90;63.50;;;;;;4971932;28;20861;-72
2023/05/26 02:15:27;;;;;;;7.00;3.73;;;19.90;63.40;;;;;;4973663;28;21022;-72
2023/05/26 02:17:57;;;;;;;4.60;3.80;;;19.90;63.30;;;;;;4978869;28;20451;-72
2023/05/26 02:20:26;;;;;;;8.83;4.07;;;19.90;63.10;;;;;;4972141;28;20538;-72
2023/05/26 02:22:56;;;;;;;7.30;2.87;;;19.90;63.00;;;;;;4967717;28;20458;-72
2023/05/26 02:25:24;;;;;;;3.13;2.83;;;19.90;64.90;;;;;;4971085;28;20475;-72
2023/05/26 02:27:53;;;;;;;5.67;2.93;;;19.90;63.40;;;;;;4998892;28;20508;-71
2023/05/26 02:30:21;;;;;;;3.50;3.20;;;19.90;63.30;;;;;;4990048;28;20482;-72
2023/05/26 02:32:49;;;;;;;4.27;3.07;;;19.90;63.30;;;;;;4988026;28;20454;-72
2023/05/26 02:35:19;;;;;;;6.30;3.57;;;19.90;63.60;;;;;;4987454;28;20462;-71
2023/05/26 02:37:47;;;;;;;6.10;3.30;;;19.90;63.60;;;;;;4993056;28;20675;-72
2023/05/26 02:40:16;;;;;;;5.33;3.63;;;19.90;63.30;;;;;;4979618;28;20496;-71
2023/05/26 02:42:44;;;;;;;4.37;2.70;;;19.90;63.70;;;;;;4966774;28;20451;-72
2023/05/26 02:45:13;;;;;;;5.00;3.17;;;19.90;63.50;;;;;;4972043;28;20451;-72
2023/05/26 02:47:41;;;;;;;4.73;2.70;;;19.90;63.60;;;;;;4970062;28;20530;-72
2023/05/26 02:50:10;;;;;;;4.20;2.93;;;19.90;63.80;;;;;;4975333;28;20477;-72
2023/05/26 02:52:40;;;;;;;8.53;3.00;;;19.90;63.80;;;;;;4985671;28;20445;-72
2023/05/26 02:55:11;;;;;;;4.10;3.17;;;19.80;63.70;;;;;;4977703;28;21001;-71
2023/05/26 02:57:39;;;;;;;5.83;3.40;;;19.90;63.70;;;;;;4998191;28;20450;-72
2023/05/26 03:00:10;;;;;;;7.87;3.33;;;19.90;63.70;;;;;;4985631;28;20477;-72
2023/05/26 03:02:39;;;;;;;4.43;3.00;;;19.80;63.60;;;;;;4976230;28;20453;-71
2023/05/26 03:05:09;;;;;;;2.90;2.53;;;19.80;63.60;;;;;;4975938;28;20460;-73
2023/05/26 03:07:38;;;;;;;4.80;2.83;;;19.80;63.60;;;;;;4975671;28;20449;-72
2023/05/26 03:10:08;;;;;;;4.97;3.30;;;19.80;63.70;;;;;;4973071;28;20454;-73
2023/05/26 03:12:37;;;;;;;5.57;3.23;;;19.80;63.60;;;;;;4976569;28;20510;-72
2023/05/26 03:15:06;;;;;;;4.60;3.37;;;19.80;63.50;;;;;;4984668;28;20478;-72
2023/05/26 03:17:35;;;;;;;4.97;3.60;;;19.80;63.30;;;;;;4983542;28;20959;-72
2023/05/26 03:20:04;;;;;;;5.00;2.90;;;19.80;62.80;;;;;;4989379;28;20542;-72
2023/05/26 03:22:32;;;;;;;4.67;3.00;;;19.80;63.40;;;;;;4966665;28;20498;-71
2023/05/26 03:25:18;;;;;;;5.50;2.90;;;19.80;63.60;;;;;;4979216;28;20474;-71
2023/05/26 03:27:49;;;;;;;5.27;3.10;;;19.80;63.60;;;;;;4973494;28;20529;-72
2023/05/26 03:30:19;;;;;;;6.60;3.07;;;19.80;63.60;;;;;;4976548;28;20474;-72
2023/05/26 03:32:49;;;;;;;3.73;3.00;;;19.80;63.60;;;;;;4983698;28;20447;-71
2023/05/26 03:35:18;;;;;;;4.40;2.50;;;19.80;63.60;;;;;;4985170;28;20475;-71
2023/05/26 03:37:46;;;;;;;3.90;2.40;;;19.80;63.70;;;;;;4991812;28;20451;-72
2023/05/26 03:40:16;;;;;;;3.03;2.57;;;19.80;63.60;;;;;;4977009;28;20471;-72
2023/05/26 03:42:45;;;;;;;4.83;3.50;;;19.70;63.60;;;;;;4978280;28;20451;-72
2023/05/26 03:45:15;;;;;;;4.07;2.53;;;19.70;63.60;;;;;;4985320;28;20459;-72
2023/05/26 03:47:43;;;;;;;3.30;2.70;;;19.70;63.60;;;;;;4986179;28;20449;-71
2023/05/26 03:50:13;;;;;;;3.80;2.67;;;19.70;63.60;;;;;;4995998;28;20479;-72
2023/05/26 03:52:42;;;;;;;4.97;2.80;;;19.70;63.60;;;;;;4984446;28;20490;-72
2023/05/26 03:55:10;;;;;;;3.53;3.23;;;19.70;63.60;;;;;;4971483;28;20498;-72
2023/05/26 03:57:41;;;;;;;4.20;2.80;;;19.70;63.60;;;;;;4986430;28;20440;-72
2023/05/26 04:00:11;;;;;;;4.80;2.60;;;19.70;64.80;;;;;;4983190;28;20455;-72
2023/05/26 04:02:45;;;;;;;3.33;2.70;;;19.70;63.60;;;;;;4967881;28;20450;-71
2023/05/26 04:05:16;;;;;;;3.40;2.50;;;19.70;63.60;;;;;;4988106;28;22362;-72
2023/05/26 04:07:46;;;;;;;4.97;3.07;;;19.70;63.60;;;;;;4983249;28;20426;-71
2023/05/26 04:10:14;;;;;;;3.60;2.63;;;19.70;63.60;;;;;;4970242;28;20474;-72
2023/05/26 04:12:45;;;;;;;5.00;3.03;;;19.70;63.60;;;;;;4983628;28;20438;-72
2023/05/26 04:15:13;;;;;;;5.63;3.50;;;19.70;63.60;;;;;;4983773;28;21049;-72
2023/05/26 04:17:42;;;;;;;5.13;3.10;;;19.70;63.60;;;;;;4967662;28;20514;-72
2023/05/26 04:20:11;;;;;;;5.60;2.90;;;19.70;63.60;;;;;;4982156;28;20974;-72
2023/05/26 04:22:40;;;;;;;5.70;2.73;;;19.70;63.60;;;;;;4974394;28;20939;-71
2023/05/26 04:25:09;;;;;;;5.70;3.33;;;19.70;63.60;;;;;;4972171;28;20454;-71
2023/05/26 04:27:59;;;;;;;4.97;3.13;;;19.70;63.60;;;;;;4961977;28;20828;-72
2023/05/26 04:30:50;;;;;;;6.37;3.20;;;19.70;63.60;;;;;;4967153;28;20506;-72
2023/05/26 04:33:25;;;;;;;5.33;2.80;;;19.70;63.60;;;;;;4968938;28;20958;-72
2023/05/26 04:36:11;;;;;;;3.90;2.60;;;19.60;63.50;;;;;;4982500;28;21026;-71
2023/05/26 04:38:41;;;;;;;4.23;2.57;;;19.60;63.50;;;;;;4987256;28;20466;-71
2023/05/26 04:41:09;;;;;;;5.43;2.80;;;19.60;63.50;;;;;;4982701;28;20506;-71
2023/05/26 04:43:40;;;;;;;6.00;2.70;;;19.60;63.50;;;;;;4983276;28;20443;-72
2023/05/26 04:46:10;;;;;;;3.60;2.50;;;19.60;63.50;;;;;;4978068;28;20488;-72
2023/05/26 04:48:40;;;;;;;5.03;2.77;;;19.60;63.50;;;;;;4970474;28;20470;-72
2023/05/26 04:51:09;;;;;;;5.27;2.93;;;19.60;63.50;;;;;;4987721;28;20969;-72
2023/05/26 04:53:38;;;;;;;3.83;2.50;;;19.60;63.50;;;;;;4966907;28;20458;-72
2023/05/26 04:56:08;;;;;;;5.77;3.00;;;19.60;63.50;;;;;;4972756;28;20802;-72
2023/05/26 04:58:43;;;;;;;4.07;2.87;;;19.60;63.60;;;;;;4976245;28;20724;-72
2023/05/26 05:01:13;;;;;;;3.87;2.90;;;19.60;63.50;;;;;;4967411;28;20496;-72
2023/05/26 05:04:14;;;;;;;8.50;3.07;;;19.60;63.50;;;;;;4947810;29;20472;-72
2023/05/26 05:06:49;;;;;;;4.90;3.40;;;19.60;63.50;;;;;;4971441;28;20540;-72
2023/05/26 05:09:18;;;;;;;3.60;2.67;;;19.60;63.50;;;;;;4984992;28;20546;-72
2023/05/26 05:11:46;;;;;;;4.60;2.80;;;19.60;63.50;;;;;;4982862;28;20740;-71
2023/05/26 05:14:17;;;;;;;6.93;3.27;;;19.60;63.50;;;;;;4983007;28;20849;-71
2023/05/26 05:16:50;;;;;;;5.00;3.47;;;19.60;63.50;;;;;;4962621;28;20578;-72
2023/05/26 05:19:19;;;;;;;5.30;3.63;;;19.60;63.50;;;;;;4975049;28;20482;-71
2023/05/26 05:21:51;;;;;;;6.07;3.10;;;19.60;63.60;;;;;;4977052;28;20455;-71
2023/05/26 05:24:20;;;;;;;8.30;3.57;;;19.60;63.50;;;;;;4967769;28;20475;-72
2023/05/26 05:26:48;;;;;;;6.17;3.10;;;19.60;63.30;;;;;;4981486;28;20447;-72
2023/05/26 05:29:22;;;;;;;7.57;3.27;;;19.60;63.50;;;;;;4964411;28;20431;-72
2023/05/26 05:31:53;;;;;;;6.87;3.10;;;19.60;63.50;;;;;;4985956;28;20446;-71
2023/05/26 05:34:22;;;;;;;7.70;3.43;;;19.60;63.50;;;;;;4972173;28;20852;-72
2023/05/26 05:36:51;;;;;;;7.40;3.77;;;19.60;64.70;;;;;;4969653;28;20469;-72
2023/05/26 05:39:19;;;;;;;5.07;3.13;;;19.50;63.40;;;;;;4969557;28;20981;-72
2023/05/26 05:41:48;;;;;;;6.17;3.90;;;19.50;63.40;;;;;;4981987;28;20501;-71
2023/05/26 05:44:18;;;;;;;4.90;3.47;;;19.50;63.40;;;;;;4961589;28;20463;-72
2023/05/26 05:46:49;;;;;;;6.93;3.00;;;19.50;63.40;;;;;;4975279;28;20444;-72
2023/05/26 05:49:24;;;;;;;5.50;3.50;;;19.50;63.40;;;;;;4969662;28;20447;-71
2023/05/26 05:51:54;;;;;;;8.53;4.07;;;19.50;63.40;;;;;;4980876;28;20440;-71
2023/05/26 05:54:23;;;;;;;5.03;2.77;;;19.60;63.50;;;;;;4979462;28;20464;-72
2023/05/26 05:56:51;;;;;;;3.50;3.20;;;19.60;63.50;;;;;;4982189;28;21004;-72
2023/05/26 05:59:21;;;;;;;4.07;3.30;;;19.60;63.50;;;;;;4975060;28;20451;-72
2023/05/26 06:01:51;;;;;;;4.67;3.07;;;19.60;63.50;;;;;;4983515;28;20435;-72
2023/05/26 06:04:20;;;;;;;4.40;2.73;;;19.60;63.50;;;;;;4967133;28;20471;-71
2023/05/26 06:06:48;;;;;;;3.10;2.80;;;19.60;63.50;;;;;;4982763;28;20435;-73
2023/05/26 06:09:17;;;;;;;5.93;2.80;;;19.60;63.50;;;;;;4970646;28;20459;-72
2023/05/26 06:11:45;;;;;;;6.30;3.53;;;19.60;63.50;;;;;;4965407;28;20517;-72
2023/05/26 06:14:13;;;;;;;5.13;3.40;;;19.60;63.50;;;;;;4966618;28;20836;-71
2023/05/26 06:16:42;;;;;;;3.50;2.87;;;19.50;63.50;;;;;;4979837;28;20479;-72
2023/05/26 06:19:12;;;;;;;3.93;3.47;;;19.50;63.40;;;;;;4966914;28;20423;-71
2023/05/26 06:21:40;;;;;;;8.90;4.10;;;19.50;63.50;;;;;;4954725;28;20907;-71
2023/05/26 06:24:09;;;;;;;4.60;3.20;;;19.50;63.40;;;;;;4961012;28;20566;-71
2023/05/26 06:26:37;;;;;;;9.03;3.97;;;19.50;63.40;;;;;;4930642;28;20502;-72
2023/05/26 06:29:06;;;;;;;5.60;3.47;;;19.50;63.40;;;;;;4951050;28;20453;-72
2023/05/26 06:31:37;;;;;;;4.87;3.80;;;19.50;63.40;;;;;;4962837;28;20502;-72
2023/05/26 06:34:16;;;;;;;6.50;3.80;;;19.50;63.40;;;;;;4949599;28;20479;-72
2023/05/26 06:36:45;;;;;;;7.20;3.80;;;19.50;63.40;;;;;;4965315;28;20566;-72
2023/05/26 06:39:14;;;;;;;4.00;3.10;;;19.50;63.40;;;;;;4981167;28;20478;-72
2023/05/26 06:41:43;;;;;;;5.73;3.73;;;19.50;63.40;;;;;;4962859;28;20464;-72
2023/05/26 06:44:11;;;;;;;6.13;3.37;;;19.50;63.40;;;;;;4951904;28;20492;-72
2023/05/26 06:46:40;;;;;;;5.57;4.37;;;19.50;63.40;;;;;;4960133;28;20553;-72
2023/05/26 06:49:08;;;;;;;8.50;3.70;;;19.50;63.40;;;;;;4965515;28;20777;-72
2023/05/26 06:51:48;;;;;;;5.77;4.60;;;19.50;63.40;;;;;;4951412;28;20487;-72
2023/05/26 06:54:18;;;;;;;5.10;3.60;;;19.50;63.40;;;;;;4948738;29;20469;-71
2023/05/26 06:56:46;;;;;;;6.83;3.90;;;19.50;63.40;;;;;;4942728;29;20479;-72
2023/05/26 06:59:16;;;;;;;4.13;3.60;;;19.40;63.30;;;;;;4949025;28;20441;-71
2023/05/26 07:01:45;;;;;;;7.80;4.23;;;19.40;63.30;;;;;;4961105;28;20547;-71
2023/05/26 07:04:13;;;;;;;6.83;4.57;;;19.40;63.40;;;;;;4949695;28;20478;-71
2023/05/26 07:06:43;;;;;;;6.50;4.27;;;19.40;63.30;;;;;;4961341;28;20515;-72
2023/05/26 07:09:21;;;;;;;4.77;4.10;;;19.40;63.30;;;;;;4964728;28;20455;-72
2023/05/26 07:11:56;;;;;;;8.00;5.23;;;19.40;63.40;;;;;;4948272;28;20901;-72
2023/05/26 07:14:54;;;;;;;4.97;3.20;;;19.40;63.30;;;;;;4936065;29;20487;-73
2023/05/26 07:17:23;;;;;;;7.00;4.13;;;19.40;63.30;;;;;;4949308;28;20478;-72
2023/05/26 07:19:52;;;;;;;4.77;3.77;;;19.40;63.30;;;;;;4955703;28;20463;-71
2023/05/26 07:22:21;;;;;;;8.13;4.30;;;19.40;63.30;;;;;;4945609;28;20484;-73
2023/05/26 07:25:08;;;;;;;5.40;4.00;;;19.40;63.40;;;;;;4928988;29;20531;-72
2023/05/26 07:27:46;;;;;;;8.20;5.30;;;19.40;63.30;;;;;;4965840;28;20432;-72
2023/05/26 07:30:14;;;;;;;9.63;6.47;;;19.40;63.30;;;;;;4949334;28;20516;-72
2023/05/26 07:33:05;;;;;;;5.50;4.40;;;19.30;63.20;;;;;;4945302;28;20765;-71
2023/05/26 07:35:33;;;;;;;6.50;4.23;;;19.30;63.20;;;;;;4949717;28;20860;-71
2023/05/26 07:38:03;;;;;;;9.00;5.37;;;19.30;63.20;;;;;;4943708;29;20885;-72
2023/05/26 07:40:37;;;;;;;6.80;4.67;;;19.30;63.10;;;;;;4951378;28;20490;-72
2023/05/26 07:43:05;;;;;;;8.17;5.80;;;19.30;63.20;;;;;;4950030;28;20451;-71
2023/05/26 07:45:33;;;;;;;9.23;6.20;;;19.30;63.20;;;;;;4948546;28;20526;-72
2023/05/26 07:48:02;;;;;;;6.87;5.20;;;19.30;63.20;;;;;;4954978;28;20456;-72
2023/05/26 07:50:31;;;;;;;7.10;5.63;;;19.30;63.20;;;;;;4952162;28;20805;-72
2023/05/26 07:52:59;;;;;;;6.70;5.90;;;19.30;63.20;;;;;;4948772;28;20535;-71
2023/05/26 07:55:28;;;;;;;6.70;4.40;;;19.30;63.20;;;;;;4948028;28;20537;-72
2023/05/26 07:57:57;;;;;;;5.43;4.60;;;19.30;63.20;;;;;;4935917;29;20507;-71
2023/05/26 08:00:26;;;;;;;28.17;18.73;;;19.30;63.40;;;;;;4948441;28;20472;-73
2023/05/26 08:02:55;;;;;;;35.17;22.70;;;19.30;63.10;;;;;;4962329;28;20471;-72
2023/05/26 08:05:26;;;;;;;39.80;23.40;;;19.30;61.80;;;;;;4965158;28;20471;-73
2023/05/26 08:07:55;;;;;;;40.33;24.10;;;19.30;59.90;;;;;;4963103;28;20535;-71
2023/05/26 08:10:24;;;;;;;40.83;24.10;;;19.20;59.90;;;;;;4947978;28;20484;-71
2023/05/26 08:12:53;;;;;;;33.90;24.40;;;19.20;58.40;;;;;;4957398;28;20540;-72
2023/05/26 08:15:24;;;;;;;35.40;25.40;;;19.10;58.80;;;;;;4955362;28;20485;-71
2023/05/26 08:17:53;;;;;;;36.90;23.30;;;19.10;58.50;;;;;;4949261;29;20464;-73
2023/05/26 08:20:21;;;;;;;32.67;22.57;;;19.10;57.70;;;;;;4961385;28;20495;-73
2023/05/26 08:22:50;;;;;;;33.83;22.57;;;19.00;57.40;;;;;;4978591;28;20557;-72
2023/05/26 08:25:19;;;;;;;33.03;20.33;;;19.00;57.40;;;;;;4965603;28;20471;-73
2023/05/26 08:27:47;;;;;;;33.00;21.03;;;18.90;58.00;;;;;;4967336;28;20452;-72
2023/05/26 08:30:16;;;;;;;28.40;20.43;;;18.90;58.40;;;;;;4968198;28;20522;-72
2023/05/26 08:32:45;;;;;;;31.83;19.40;;;18.90;58.40;;;;;;4966054;28;20622;-72
2023/05/26 08:35:14;;;;;;;25.40;18.90;;;18.90;58.80;;;;;;4965386;28;20522;-72
2023/05/26 08:37:44;;;;;;;22.50;18.10;;;18.90;58.70;;;;;;4972601;28;20555;-72
2023/05/26 08:40:14;;;;;;;33.97;19.67;;;18.90;59.00;;;;;;4977305;28;20465;-71
2023/05/26 08:42:47;;;;;;;25.33;17.77;;;18.90;59.40;;;;;;4967228;28;20522;-72
2023/05/26 08:45:16;;;;;;;22.77;18.07;;;18.90;59.40;;;;;;4980291;28;20455;-72
2023/05/26 08:47:48;;;;;;;22.00;18.47;;;18.90;59.50;;;;;;4966447;28;20542;-72
2023/05/26 08:50:19;;;;;;;28.70;17.43;;;18.90;59.70;;;;;;4983787;28;20474;-72
2023/05/26 08:52:50;;;;;;;26.87;18.40;;;19.00;59.80;;;;;;4982020;28;20439;-71
2023/05/26 08:55:34;;;;;;;27.80;19.23;;;18.90;59.70;;;;;;4964407;28;20515;-72
2023/05/26 08:58:04;;;;;;;19.77;16.23;;;18.90;59.60;;;;;;4937283;29;21020;-71
2023/05/26 09:00:33;;;;;;;27.53;17.80;;;18.90;59.70;;;;;;4963682;28;20538;-72
2023/05/26 09:03:03;;;;;;;31.17;19.60;;;18.90;59.40;;;;;;4962929;28;20451;-72
2023/05/26 09:05:32;;;;;;;22.40;17.20;;;18.90;59.70;;;;;;4955335;28;20483;-73
2023/05/26 09:08:00;;;;;;;27.53;19.90;;;18.90;59.90;;;;;;4953224;28;20442;-72
2023/05/26 09:10:32;;;;;;;25.67;18.80;;;18.90;59.70;;;;;;4953108;28;20464;-72
2023/05/26 09:13:05;;;;;;;27.07;19.30;;;18.90;59.20;;;;;;4950408;28;20453;-72
2023/05/26 09:15:34;;;;;;;22.17;17.80;;;18.90;59.60;;;;;;4959228;28;20939;-72
2023/05/26 09:18:05;;;;;;;27.83;20.07;;;18.90;59.90;;;;;;4954294;28;20484;-72
2023/05/26 09:20:35;;;;;;;26.17;19.33;;;18.90;58.10;;;;;;4950194;28;21046;-73
2023/05/26 09:23:03;;;;;;;19.90;15.43;;;18.80;57.30;;;;;;4942290;28;20483;-72
2023/05/26 09:25:35;;;;;;;24.97;17.63;;;18.70;59.70;;;;;;4936075;28;20572;-71
2023/05/26 09:28:05;;;;;;;18.17;15.50;;;18.70;59.10;;;;;;4945953;28;20435;-72
2023/05/26 09:30:38;;;;;;;25.17;18.87;;;18.70;60.00;;;;;;4945614;28;20518;-72
2023/05/26 09:33:11;;;;;;;23.00;17.30;;;18.80;59.10;;;;;;4961835;28;20535;-72
2023/05/26 09:35:41;;;;;;;20.97;17.43;;;18.90;60.40;;;;;;4947053;28;20547;-71
2023/05/26 09:38:11;;;;;;;19.20;17.10;;;18.90;60.50;;;;;;4944710;29;20486;-72
2023/05/26 09:40:42;;;;;;;22.67;16.63;;;18.90;60.50;;;;;;4944421;28;20471;-71
2023/05/26 09:43:10;;;;;;;20.93;17.23;;;19.00;60.20;;;;;;4942918;29;20440;-71
2023/05/26 09:45:40;;;;;;;26.00;17.63;;;19.00;59.20;;;;;;4946357;28;20478;-72
2023/05/26 09:48:11;;;;;;;25.97;17.87;;;18.90;58.70;;;;;;4950146;28;20909;-71
2023/05/26 09:50:40;;;;;;;23.50;15.30;;;18.90;59.80;;;;;;4946750;28;20472;-71
2023/05/26 09:53:10;;;;;;;23.30;16.50;;;19.00;60.20;;;;;;4948949;28;20444;-71
2023/05/26 09:55:40;;;;;;;29.60;17.70;;;18.90;58.90;;;;;;4945838;28;20464;-71
2023/05/26 09:58:11;;;;;;;31.13;16.37;;;18.90;58.70;;;;;;4950482;28;20472;-71
2023/05/26 10:00:41;;;;;;;28.10;17.07;;;18.90;59.30;;;;;;4961083;28;20471;-71
2023/05/26 10:03:12;;;;;;;33.93;17.30;;;18.90;59.70;;;;;;4958958;28;20436;-72
2023/05/26 10:05:45;;;;;;;23.17;15.70;;;18.90;60.10;;;;;;4945483;28;20484;-72
2023/05/26 10:08:17;;;;;;;20.73;15.03;;;19.00;60.50;;;;;;4949415;28;20835;-72
2023/05/26 10:10:47;;;;;;;21.37;15.97;;;18.90;59.70;;;;;;4946904;28;20480;-71
2023/05/26 10:13:17;;;;;;;19.20;14.87;;;18.90;59.30;;;;;;4958604;28;21025;-72
2023/05/26 10:15:46;;;;;;;19.50;14.50;;;18.90;59.40;;;;;;4960774;28;20480;-71
2023/05/26 10:18:16;;;;;;;23.40;15.30;;;18.90;59.20;;;;;;4949754;28;21039;-71
2023/05/26 10:20:48;;;;;;;29.10;17.67;;;19.00;60.20;;;;;;4969731;28;20463;-72
2023/05/26 10:23:22;;;;;;;24.73;15.17;;;18.90;59.20;;;;;;4967481;28;20530;-72
2023/05/26 10:25:57;;;;;;;22.00;15.50;;;19.00;59.90;;;;;;4957412;28;20482;-72
2023/05/26 10:28:33;;;;;;;19.77;14.57;;;18.90;58.90;;;;;;4952513;28;20522;-72
2023/05/26 10:31:02;;;;;;;18.03;15.40;;;18.90;59.90;;;;;;4959396;28;21051;-71
2023/05/26 10:33:43;;;;;;;22.70;14.20;;;18.90;59.00;;;;;;4941652;29;20526;-71
2023/05/26 10:36:16;;;;;;;18.20;15.07;;;18.90;59.80;;;;;;4971534;28;20921;-72
2023/05/26 10:38:45;;;;;;;24.50;14.87;;;18.90;60.50;;;;;;4970396;28;20482;-72
2023/05/26 10:41:30;;;;;;;25.60;14.93;;;19.00;60.50;;;;;;4968172;28;20485;-72
2023/05/26 10:43:59;;;;;;;25.37;12.83;;;18.90;60.70;;;;;;4964854;28;20543;-72
2023/05/26 10:46:39;;;;;;;16.40;14.10;;;18.90;59.80;;;;;;4968588;28;21077;-71
2023/05/26 10:49:22;;;;;;;21.63;14.80;;;19.00;60.30;;;;;;4964899;28;20458;-71
2023/05/26 10:51:52;;;;;;;17.30;12.83;;;19.00;59.70;;;;;;4968247;28;20652;-73
2023/05/26 10:54:24;;;;;;;19.63;13.27;;;19.00;60.40;;;;;;4968649;28;20907;-71
2023/05/26 10:56:55;;;;;;;17.60;13.50;;;19.10;60.10;;;;;;4967803;28;20524;-71
2023/05/26 10:59:30;;;;;;;20.27;13.10;;;19.10;60.10;;;;;;4971130;28;20472;-72
2023/05/26 11:02:03;;;;;;;20.10;14.37;;;19.10;60.30;;;;;;4949653;29;20467;-71
2023/05/26 11:04:52;;;;;;;16.77;13.30;;;19.10;58.60;;;;;;4966893;28;20531;-72
2023/05/26 11:07:23;;;;;;;22.03;12.60;;;19.10;60.10;;;;;;4962337;28;20444;-72
2023/05/26 11:10:02;;;;;;;16.30;13.00;;;19.10;60.30;;;;;;4964123;28;20464;-72
2023/05/26 11:12:34;;;;;;;17.77;13.27;;;19.10;59.70;;;;;;4951634;28;20455;-72
2023/05/26 11:15:25;;;;;;;23.57;13.97;;;19.10;59.10;;;;;;4957071;28;20467;-72
2023/05/26 11:17:58;;;;;;;18.57;12.87;;;19.10;57.50;;;;;;4942734;29;20463;-73
2023/05/26 11:20:28;;;;;;;19.00;13.53;;;19.10;60.30;;;;;;4950753;28;20440;-72
2023/05/26 11:22:57;;;;;;;18.07;11.60;;;19.10;60.20;;;;;;4943272;29;20476;-72
2023/05/26 11:25:26;;;;;;;18.87;13.40;;;19.10;60.60;;;;;;4953732;28;20638;-71
2023/05/26 11:27:55;;;;;;;12.93;11.10;;;19.10;60.40;;;;;;4962658;28;20495;-72
2023/05/26 11:30:33;;;;;;;29.40;14.43;;;19.10;60.30;;;;;;4966592;28;20440;-72
2023/05/26 11:33:12;;;;;;;20.10;13.47;;;19.20;60.10;;;;;;4964505;28;20555;-72
2023/05/26 11:35:42;;;;;;;16.10;12.70;;;19.20;60.00;;;;;;4947611;28;20515;-72
2023/05/26 11:38:11;;;;;;;17.00;12.67;;;19.20;59.80;;;;;;4948219;29;20448;-69
2023/05/26 11:40:41;;;;;;;21.33;12.17;;;19.20;60.30;;;;;;4941554;28;20486;-74
2023/05/26 11:43:12;;;;;;;15.53;12.00;;;19.20;60.10;;;;;;4947311;28;20534;-72
2023/05/26 11:45:41;;;;;;;14.07;12.57;;;19.20;60.10;;;;;;4943034;28;20472;-75
2023/05/26 11:48:12;;;;;;;21.90;12.50;;;19.30;59.40;;;;;;4944441;28;20466;-74
2023/05/26 11:50:42;;;;;;;23.20;13.00;;;19.30;59.40;;;;;;4948654;28;21062;-73
2023/05/26 11:53:11;;;;;;;17.17;12.97;;;19.30;59.40;;;;;;4947531;28;20618;-74
2023/05/26 11:55:40;;;;;;;21.77;11.97;;;19.40;59.90;;;;;;4960357;28;20521;-71
2023/05/26 11:58:12;;;;;;;15.80;12.13;;;19.40;59.70;;;;;;4984139;28;20439;-71
2023/05/26 12:00:40;;;;;;;22.53;12.97;;;19.40;59.90;;;;;;4965103;28;20480;-72
2023/05/26 12:03:19;;;;;;;18.30;11.63;;;19.40;59.10;;;;;;4947686;28;20456;-70
2023/05/26 12:05:49;;;;;;;19.87;13.00;;;19.40;59.40;;;;;;4959297;28;20514;-70
2023/05/26 12:08:17;;;;;;;17.80;11.53;;;19.40;59.50;;;;;;4960323;28;20459;-71
2023/05/26 12:10:46;;;;;;;19.23;12.30;;;19.40;58.70;;;;;;4965880;28;20466;-72
2023/05/26 12:13:14;;;;;;;18.60;11.23;;;19.40;59.30;;;;;;4962405;28;21107;-71
2023/05/26 12:15:51;;;;;;;19.80;12.10;;;19.40;59.80;;;;;;4978130;28;20518;-72
2023/05/26 12:18:23;;;;;;;18.53;10.83;;;19.40;58.90;;;;;;4964706;28;20450;-73
2023/05/26 12:20:53;;;;;;;16.60;10.43;;;19.30;59.30;;;;;;4967267;28;21118;-72
2023/05/26 12:23:25;;;;;;;12.83;10.60;;;19.40;59.70;;;;;;4966409;28;20548;-72
2023/05/26 12:25:54;;;;;;;13.70;11.70;;;19.30;59.90;;;;;;4950272;28;21080;-73
2023/05/26 12:28:23;;;;;;;13.57;10.93;;;19.30;60.10;;;;;;4974365;28;20470;-73
2023/05/26 12:30:55;;;;;;;17.33;10.37;;;19.30;60.10;;;;;;4966821;28;20479;-73
2023/05/26 12:33:25;;;;;;;13.60;10.37;;;19.30;60.40;;;;;;4964336;28;20452;-72
2023/05/26 12:35:55;;;;;;;15.67;11.10;;;19.30;60.10;;;;;;4966244;28;21025;-72
2023/05/26 12:38:24;;;;;;;12.70;10.40;;;19.30;60.40;;;;;;4982600;28;20447;-72
2023/05/26 12:40:52;;;;;;;14.37;11.07;;;19.30;60.50;;;;;;4966337;28;20467;-72
2023/05/26 12:43:22;;;;;;;15.13;10.57;;;19.30;60.50;;;;;;4983040;28;20447;-72
2023/05/26 12:45:51;;;;;;;14.60;10.33;;;19.40;60.70;;;;;;4965300;28;20489;-71
2023/05/26 12:48:19;;;;;;;19.60;10.90;;;19.40;60.70;;;;;;4966377;28;20439;-72
2023/05/26 12:50:48;;;;;;;13.63;10.30;;;19.40;60.80;;;;;;4982668;28;20483;-71
2023/05/26 12:53:18;;;;;;;18.87;9.80;;;19.40;61.00;;;;;;4968195;28;20873;-71
2023/05/26 12:55:47;;;;;;;12.53;9.20;;;19.40;62.20;;;;;;4965198;28;21061;-72
2023/05/26 12:58:15;;;;;;;17.10;10.53;;;19.40;62.20;;;;;;4946350;28;20827;-73